sensor_id;sensor_type;location;lat;lon;timestamp;P1;durP1;ratioP1;P2;durP2;ratioP2
2107;SDS011;1060;52.492;13.388;2023-11-19T00:47:05;14.10;;;12.50;;
2107;SDS011;1060;52.492;13.388;2023-11-19T06:54:01;16.50;;;12.57;;
2107;SDS011;1060;52.492;13.388;2023-11-19T07:52:00;14.50;;;12.90;;
2107;SDS011;1060;52.492;13.388;2023-11-19T07:54:28;13.10;;;11.70;;
2107;SDS011;1060;52.492;13.388;2023-11-19T07:56:59;12.63;;;11.43;;
2107;SDS011;1060;52.492;13.388;2023-11-19T07:59:26;12.90;;;11.73;;
2107;SDS011;1060;52.492;13.388;2023-11-19T08:01:52;13.90;;;12.63;;
2107;SDS011;1060;52.492;13.388;2023-11-19T08:04:19;11.87;;;10.80;;
2107;SDS011;1060;52.492;13.388;2023-11-19T08:06:45;11.43;;;10.23;;
2107;SDS011;1060;52.492;13.388;2023-11-19T08:09:11;12.83;;;11.60;;
2107;SDS011;1060;52.492;13.388;2023-11-19T08:11:39;13.60;;;12.33;;
2107;SDS011;1060;52.492;13.388;2023-11-19T08:14:08;13.73;;;12.07;;
2107;SDS011;1060;52.492;13.388;2023-11-19T08:16:39;13.63;;;12.20;;
2107;SDS011;1060;52.492;13.388;2023-11-19T08:19:05;13.93;;;11.10;;
2107;SDS011;1060;52.492;13.388;2023-11-19T08:21:31;13.73;;;11.10;;
2107;SDS011;1060;52.492;13.388;2023-11-19T08:24:00;13.00;;;11.70;;
2107;SDS011;1060;52.492;13.388;2023-11-19T08:26:26;14.37;;;12.43;;
2107;SDS011;1060;52.492;13.388;2023-11-19T08:28:55;13.00;;;11.70;;
2107;SDS011;1060;52.492;13.388;2023-11-19T08:31:24;13.60;;;12.23;;
2107;SDS011;1060;52.492;13.388;2023-11-19T08:33:50;11.50;;;10.30;;
2107;SDS011;1060;52.492;13.388;2023-11-19T08:36:17;13.20;;;12.00;;
2107;SDS011;1060;52.492;13.388;2023-11-19T08:38:43;12.33;;;11.13;;
2107;SDS011;1060;52.492;13.388;2023-11-19T08:41:11;11.27;;;10.27;;
2107;SDS011;1060;52.492;13.388;2023-11-19T08:43:38;12.47;;;11.07;;
2107;SDS011;1060;52.492;13.388;2023-11-19T08:46:14;12.10;;;11.00;;
2107;SDS011;1060;52.492;13.388;2023-11-19T08:48:49;12.27;;;11.07;;
2107;SDS011;1060;52.492;13.388;2023-11-19T08:51:16;9.63;;;8.77;;
2107;SDS011;1060;52.492;13.388;2023-11-19T08:53:45;11.13;;;9.23;;
2107;SDS011;1060;52.492;13.388;2023-11-19T08:56:12;10.03;;;9.17;;
2107;SDS011;1060;52.492;13.388;2023-11-19T08:58:39;11.70;;;10.60;;
2107;SDS011;1060;52.492;13.388;2023-11-19T09:01:05;13.07;;;11.83;;
2107;SDS011;1060;52.492;13.388;2023-11-19T09:03:39;9.40;;;8.60;;
2107;SDS011;1060;52.492;13.388;2023-11-19T09:06:05;8.60;;;7.80;;
2107;SDS011;1060;52.492;13.388;2023-11-19T09:08:32;9.30;;;8.30;;
2107;SDS011;1060;52.492;13.388;2023-11-19T09:10:58;9.97;;;9.10;;
2107;SDS011;1060;52.492;13.388;2023-11-19T09:13:25;9.03;;;7.90;;
2107;SDS011;1060;52.492;13.388;2023-11-19T09:15:51;8.33;;;7.60;;
2107;SDS011;1060;52.492;13.388;2023-11-19T09:28:37;7.97;;;7.17;;
2107;SDS011;1060;52.492;13.388;2023-11-19T09:31:49;9.30;;;8.20;;
2107;SDS011;1060;52.492;13.388;2023-11-19T09:34:19;10.63;;;9.60;;
2107;SDS011;1060;52.492;13.388;2023-11-19T09:36:46;11.80;;;10.70;;
2107;SDS011;1060;52.492;13.388;2023-11-19T09:47:17;11.57;;;10.57;;
2107;SDS011;1060;52.492;13.388;2023-11-19T09:52:30;14.03;;;12.63;;
2107;SDS011;1060;52.492;13.388;2023-11-19T09:55:08;8.33;;;7.17;;
2107;SDS011;1060;52.492;13.388;2023-11-19T10:01:19;9.73;;;7.47;;
2107;SDS011;1060;52.492;13.388;2023-11-19T10:03:46;7.40;;;6.60;;
2107;SDS011;1060;52.492;13.388;2023-11-19T10:06:15;8.50;;;5.43;;
2107;SDS011;1060;52.492;13.388;2023-11-19T10:08:46;6.33;;;5.73;;
2107;SDS011;1060;52.492;13.388;2023-11-19T10:11:29;8.27;;;5.37;;
2107;SDS011;1060;52.492;13.388;2023-11-19T10:27:44;6.43;;;5.83;;
2107;SDS011;1060;52.492;13.388;2023-11-19T10:40:44;5.93;;;4.43;;
2107;SDS011;1060;52.492;13.388;2023-11-19T10:43:23;6.10;;;5.60;;
2107;SDS011;1060;52.492;13.388;2023-11-19T10:46:38;5.23;;;4.80;;
2107;SDS011;1060;52.492;13.388;2023-11-19T10:53:19;6.33;;;5.73;;
2107;SDS011;1060;52.492;13.388;2023-11-19T11:12:52;7.83;;;5.73;;
2107;SDS011;1060;52.492;13.388;2023-11-19T11:15:52;8.60;;;5.87;;
2107;SDS011;1060;52.492;13.388;2023-11-19T11:21:43;10.90;;;5.10;;
2107;SDS011;1060;52.492;13.388;2023-11-19T11:38:22;14.73;;;7.80;;
2107;SDS011;1060;52.492;13.388;2023-11-19T11:43:46;12.83;;;5.77;;
2107;SDS011;1060;52.492;13.388;2023-11-19T12:20:34;14.50;;;6.20;;
2107;SDS011;1060;52.492;13.388;2023-11-19T12:23:09;16.97;;;7.13;;
2107;SDS011;1060;52.492;13.388;2023-11-19T12:25:57;12.50;;;6.57;;
2107;SDS011;1060;52.492;13.388;2023-11-19T13:29:42;15.87;;;8.13;;
2107;SDS011;1060;52.492;13.388;2023-11-19T13:50:31;18.73;;;6.20;;
2107;SDS011;1060;52.492;13.388;2023-11-19T16:14:56;17.37;;;8.13;;
2107;SDS011;1060;52.492;13.388;2023-11-19T16:17:29;22.40;;;12.03;;
2107;SDS011;1060;52.492;13.388;2023-11-19T16:20:02;29.93;;;13.33;;
2107;SDS011;1060;52.492;13.388;2023-11-19T16:22:49;18.47;;;8.30;;
2107;SDS011;1060;52.492;13.388;2023-11-19T17:00:28;21.60;;;8.60;;
